createdAt,value
2019-01-19T00:04:47.753Z,-2.50
2019-01-19T00:10:25.775Z,-2.40
2019-01-19T00:16:03.643Z,-2.40
2019-01-19T00:21:44.974Z,-2.50
2019-01-19T00:27:43.654Z,-2.60
2019-01-19T00:33:19.948Z,-2.80
2019-01-19T00:39:00.994Z,-1.70
2019-01-19T00:44:28.761Z,-1.80
2019-01-19T00:49:55.345Z,-2.30
2019-01-19T00:55:25.270Z,-2.70
2019-01-19T01:00:39.849Z,-3.00
2019-01-19T01:06:23.613Z,-3.20
2019-01-19T01:12:12.921Z,-3.30
2019-01-19T01:17:46.211Z,-3.40
2019-01-19T01:23:27.909Z,-3.40
2019-01-19T01:29:01.764Z,-3.40
2019-01-19T01:34:46.537Z,-3.40
2019-01-19T01:40:21.295Z,-3.50
2019-01-19T01:46:28.312Z,-3.50
2019-01-19T01:52:17.576Z,-3.50
2019-01-19T01:57:40.913Z,-3.50
2019-01-19T02:03:12.652Z,-3.60
2019-01-19T02:08:49.009Z,-3.60
2019-01-19T02:14:43.266Z,-3.60
2019-01-19T02:20:32.890Z,-3.70
2019-01-19T02:26:37.124Z,-3.70
2019-01-19T02:32:09.586Z,-3.70
2019-01-19T02:37:49.349Z,-3.70
2019-01-19T02:43:19.649Z,-3.70
2019-01-19T02:49:00.211Z,-3.70
2019-01-19T02:54:40.729Z,-3.60
2019-01-19T03:00:29.600Z,-3.60
2019-01-19T03:06:18.255Z,-3.50
2019-01-19T03:11:56.238Z,-3.60
2019-01-19T03:17:42.744Z,-3.70
2019-01-19T03:23:23.888Z,-3.80
2019-01-19T03:29:02.626Z,-3.80
2019-01-19T03:34:28.266Z,-3.80
2019-01-19T03:40:15.873Z,-3.90
2019-01-19T03:46:00.094Z,-3.90
2019-01-19T03:51:18.342Z,-3.80
2019-01-19T03:57:10.693Z,-3.70
2019-01-19T04:02:51.394Z,-3.80
2019-01-19T04:08:31.599Z,-3.80
2019-01-19T04:14:01.781Z,-3.80
2019-01-19T04:19:48.853Z,-3.90
2019-01-19T04:25:33.836Z,-3.90
2019-01-19T04:30:38.848Z,-4.00
2019-01-19T04:35:43.864Z,-3.90
2019-01-19T04:40:48.869Z,-4.00
2019-01-19T04:45:53.907Z,-4.10
2019-01-19T04:50:58.920Z,-4.10
2019-01-19T04:56:03.970Z,-4.20
2019-01-19T05:01:08.995Z,-4.20
2019-01-19T05:06:14.196Z,-4.20
2019-01-19T05:11:19.248Z,-4.20
2019-01-19T05:16:24.285Z,-4.30
2019-01-19T05:21:29.393Z,-4.30
2019-01-19T05:26:34.404Z,-4.30
2019-01-19T05:31:39.418Z,-4.30
2019-01-19T05:36:44.421Z,-4.30
2019-01-19T05:41:49.460Z,-4.40
2019-01-19T05:46:54.610Z,-4.40
2019-01-19T05:51:59.662Z,-4.40
2019-01-19T05:57:04.702Z,-4.40
2019-01-19T06:02:09.909Z,-4.40
2019-01-19T06:07:14.953Z,-4.40
2019-01-19T06:12:20.001Z,-4.40
2019-01-19T06:17:25.037Z,-4.40
2019-01-19T06:22:30.067Z,-4.40
2019-01-19T06:27:35.071Z,-4.40
2019-01-19T06:32:40.087Z,-4.30
2019-01-19T06:37:45.264Z,-4.40
2019-01-19T06:42:50.277Z,-4.40
2019-01-19T06:47:55.549Z,-4.40
2019-01-19T06:53:00.590Z,-4.50
2019-01-19T06:58:05.612Z,-4.50
2019-01-19T07:03:10.928Z,-4.60
2019-01-19T07:08:15.969Z,-4.60
2019-01-19T07:13:20.972Z,-4.60
2019-01-19T07:18:25.963Z,-4.60
2019-01-19T07:23:30.969Z,-4.60
2019-01-19T07:28:35.979Z,-4.60
2019-01-19T07:33:40.988Z,-4.60
2019-01-19T07:38:46.001Z,-4.60
2019-01-19T07:43:51.005Z,-4.60
2019-01-19T07:48:56.004Z,-4.60
2019-01-19T07:54:01.021Z,-4.40
2019-01-19T07:59:06.090Z,-4.40
2019-01-19T08:04:11.150Z,-4.40
2019-01-19T08:09:16.162Z,-4.50
2019-01-19T08:14:21.214Z,-4.50
2019-01-19T08:19:26.228Z,-4.40
2019-01-19T08:24:31.252Z,-4.40
2019-01-19T08:29:36.262Z,-4.20
2019-01-19T08:34:41.334Z,-4.20
2019-01-19T08:39:46.565Z,-4.20
2019-01-19T08:44:52.173Z,-4.10
2019-01-19T08:49:57.359Z,-4.00
2019-01-19T08:55:02.320Z,-3.80
2019-01-19T09:00:11.341Z,-3.60
2019-01-19T09:05:16.357Z,-3.50
2019-01-19T09:10:21.435Z,-3.30
2019-01-19T09:15:26.604Z,-3.20
2019-01-19T09:20:31.645Z,-3.10
2019-01-19T09:25:36.655Z,-2.90
2019-01-19T09:30:41.665Z,-2.80
2019-01-19T09:35:46.662Z,-2.70
2019-01-19T09:40:51.664Z,-2.60
2019-01-19T09:45:56.685Z,-2.50
2019-01-19T09:51:01.693Z,-2.30
2019-01-19T09:56:06.696Z,-2.20
2019-01-19T10:01:11.727Z,-2.10
2019-01-19T10:06:16.784Z,-1.90
2019-01-19T10:11:21.783Z,-1.80
2019-01-19T10:16:26.792Z,-1.70
2019-01-19T10:21:32.496Z,-1.50
2019-01-19T10:26:37.513Z,-1.40
2019-01-19T10:31:42.511Z,-1.30
2019-01-19T10:36:47.528Z,-1.20
2019-01-19T10:41:52.521Z,-1.20
2019-01-19T10:46:57.531Z,-1.00
2019-01-19T10:52:02.541Z,-0.90
2019-01-19T10:57:07.582Z,-0.90
2019-01-19T11:02:12.589Z,-0.80
2019-01-19T11:07:17.762Z,-0.70
2019-01-19T11:12:22.768Z,-0.60
2019-01-19T11:17:27.789Z,-0.60
2019-01-19T11:22:32.824Z,-0.50
2019-01-19T11:27:37.816Z,-0.40
2019-01-19T11:32:44.499Z,-0.40
2019-01-19T11:37:50.202Z,-0.30
2019-01-19T11:42:55.177Z,-0.30
2019-01-19T11:48:00.494Z,-0.20
2019-01-19T11:53:05.673Z,-0.20
2019-01-19T11:58:10.661Z,-0.10
2019-01-19T12:03:15.664Z,0.00
2019-01-19T12:08:20.680Z,0.00
2019-01-19T12:13:25.700Z,0.10
2019-01-19T12:18:30.736Z,0.10
2019-01-19T12:23:35.720Z,0.20
2019-01-19T12:28:40.720Z,0.20
2019-01-19T12:33:45.840Z,0.30
2019-01-19T12:38:50.843Z,0.30
2019-01-19T12:43:55.837Z,0.40
2019-01-19T12:49:00.833Z,0.40
2019-01-19T12:54:05.918Z,0.40
2019-01-19T12:59:10.917Z,0.50
2019-01-19T13:04:15.909Z,0.50
2019-01-19T13:09:30.054Z,0.60
2019-01-19T13:14:38.868Z,0.50
2019-01-19T13:20:06.993Z,0.60
2019-01-19T13:25:51.900Z,0.60
2019-01-19T13:31:46.285Z,0.60
2019-01-19T13:37:31.141Z,0.60
2019-01-19T13:43:11.765Z,0.50
2019-01-19T13:48:56.624Z,0.40
2019-01-19T13:54:52.006Z,0.30
2019-01-19T14:00:35.200Z,0.30
2019-01-19T14:06:04.974Z,0.20
2019-01-19T14:11:38.608Z,0.20
2019-01-19T14:17:14.037Z,0.20
2019-01-19T14:23:15.200Z,0.20
2019-01-19T14:29:03.999Z,0.10
2019-01-19T14:34:23.465Z,0.10
2019-01-19T14:39:56.151Z,0.00
2019-01-19T14:45:24.579Z,-0.10
2019-01-19T14:51:07.718Z,-0.10
2019-01-19T14:56:53.781Z,-0.10
2019-01-19T15:02:44.664Z,-0.20
2019-01-19T15:08:18.463Z,-0.30
2019-01-19T15:14:06.422Z,-0.40
2019-01-19T15:19:46.882Z,-0.50
2019-01-19T15:25:29.360Z,-0.60
2019-01-19T15:31:11.909Z,-0.70
2019-01-19T15:36:50.218Z,-0.90
2019-01-19T15:42:39.113Z,-1.00
2019-01-19T15:48:25.015Z,-1.20
2019-01-19T15:53:44.522Z,-1.40
2019-01-19T15:59:39.421Z,-1.50
2019-01-19T16:05:13.653Z,-1.70
2019-01-19T16:11:15.140Z,-1.80
2019-01-19T16:16:46.932Z,-1.90
2019-01-19T16:22:17.484Z,-2.00
2019-01-19T16:27:48.408Z,-2.10
2019-01-19T16:33:42.743Z,-2.20
2019-01-19T16:39:36.760Z,-2.20
2019-01-19T16:45:17.808Z,-2.30
2019-01-19T16:50:55.368Z,-2.40
2019-01-19T16:56:50.580Z,-2.50
2019-01-19T17:02:51.880Z,-2.50
2019-01-19T17:08:35.226Z,-2.60
2019-01-19T17:14:30.299Z,-2.70
2019-01-19T17:20:09.953Z,-2.80
2019-01-19T17:25:55.006Z,-2.80
2019-01-19T17:31:40.414Z,-2.90
2019-01-19T17:37:29.096Z,-3.00
2019-01-19T17:43:39.499Z,-3.00
2019-01-19T17:49:41.112Z,-3.00
2019-01-19T17:55:12.915Z,-3.10
2019-01-19T18:00:58.866Z,-3.20
2019-01-19T18:07:00.135Z,-3.20
2019-01-19T18:12:44.011Z,-3.20
2019-01-19T18:18:28.812Z,-3.30
2019-01-19T18:24:12.968Z,-3.30
2019-01-19T18:29:49.184Z,-3.40
2019-01-19T18:35:29.179Z,-3.50
2019-01-19T18:41:13.476Z,-3.60
2019-01-19T18:47:04.285Z,-3.50
2019-01-19T18:52:48.247Z,-3.50
2019-01-19T18:58:41.032Z,-3.50
2019-01-19T19:04:34.909Z,-3.50
2019-01-19T19:10:09.802Z,-3.50
2019-01-19T19:16:11.418Z,-3.60
2019-01-19T19:21:54.180Z,-3.60
2019-01-19T19:27:38.893Z,-3.60
2019-01-19T19:33:11.544Z,-3.60
2019-01-19T19:38:59.431Z,-3.60
2019-01-19T19:44:40.008Z,-3.60
2019-01-19T19:50:03.626Z,-3.60
2019-01-19T19:55:07.191Z,-3.60
2019-01-19T20:00:12.626Z,-3.60
2019-01-19T20:05:17.643Z,-3.50
2019-01-19T20:10:22.660Z,-3.50
2019-01-19T20:15:27.679Z,-3.50
2019-01-19T20:20:32.728Z,-3.60
2019-01-19T20:25:37.753Z,-3.70
2019-01-19T20:30:42.780Z,-3.70
2019-01-19T20:35:47.792Z,-3.70
2019-01-19T20:40:52.823Z,-3.60
2019-01-19T20:46:00.144Z,-3.70
2019-01-19T20:51:05.391Z,-3.70
2019-01-19T20:56:10.398Z,-3.70
2019-01-19T21:01:16.155Z,-3.70
2019-01-19T21:06:21.212Z,-3.80
2019-01-19T21:11:26.242Z,-3.80
2019-01-19T21:16:31.313Z,-3.80
2019-01-19T21:21:36.365Z,-3.90
2019-01-19T21:26:41.396Z,-3.80
2019-01-19T21:31:48.240Z,-3.80
2019-01-19T21:36:53.636Z,-3.80
2019-01-19T21:41:58.668Z,-3.80
2019-01-19T21:47:03.960Z,-3.90
2019-01-19T21:52:09.078Z,-3.90
2019-01-19T21:57:14.377Z,-3.90
2019-01-19T22:02:19.376Z,-3.90
2019-01-19T22:07:24.412Z,-3.90
2019-01-19T22:12:29.426Z,-3.90
2019-01-19T22:17:39.436Z,-4.00
2019-01-19T22:22:41.456Z,-4.10
2019-01-19T22:27:48.452Z,-4.10
2019-01-19T22:32:55.646Z,-4.10
2019-01-19T22:38:00.936Z,-4.20
2019-01-19T22:43:09.147Z,-4.20
2019-01-19T22:48:14.177Z,-4.30
2019-01-19T22:53:19.217Z,-4.30
2019-01-19T22:58:26.253Z,-4.30
2019-01-19T23:03:36.428Z,-4.30
2019-01-19T23:08:41.458Z,-4.50
2019-01-19T23:13:46.484Z,-4.50
2019-01-19T23:18:51.548Z,-4.50
2019-01-19T23:23:56.582Z,-4.50
2019-01-19T23:29:01.601Z,-4.50
2019-01-19T23:34:08.654Z,-4.50
2019-01-19T23:39:13.993Z,-4.50
2019-01-19T23:44:19.007Z,-4.50
2019-01-19T23:49:24.092Z,-4.50
2019-01-19T23:54:29.458Z,-4.40
2019-01-19T23:59:35.607Z,-4.30
